Time;durP1;ratioP1;P1;durP2;ratioP2;P2;SDS_P1;SDS_P2;PMS_P1;PMS_P2;Temp;Humidity;BMP_temperature;BMP_pressure;BME280_temperature;BME280_humidity;BME280_pressure;Samples;Min_cycle;Max_cycle;Signal;HPM_P1;HPM_P2
2023/05/19 00:02:46;;;;;;;;;;;20.00;57.50;;;;;;6345396;28;19987;-71
2023/05/19 00:05:47;;;;;;;;;;;20.00;57.50;;;;;;6344495;28;19943;-72
2023/05/19 00:08:48;;;;;;;;;;;20.00;57.50;;;;;;6344575;28;20378;-72
2023/05/19 00:11:49;;;;;;;;;;;20.00;57.60;;;;;;6344561;28;20488;-72
2023/05/19 00:14:49;;;;;;;;;;;20.00;57.60;;;;;;6343975;28;19919;-72
2023/05/19 00:17:51;;;;;;;;;;;20.00;57.60;;;;;;6326596;28;20434;-73
2023/05/19 00:20:51;;;;;;;;;;;20.00;57.60;;;;;;6345304;28;19942;-72
2023/05/19 00:23:52;;;;;;;;;;;20.00;57.60;;;;;;6344821;28;19912;-72
2023/05/19 00:26:52;;;;;;;;;;;20.00;57.60;;;;;;6345230;28;19919;-72
2023/05/19 00:29:53;;;;;;;;;;;20.00;57.60;;;;;;6344795;28;20354;-72
2023/05/19 00:32:53;;;;;;;;;;;20.00;57.60;;;;;;6344615;28;19908;-71
2023/05/19 00:35:54;;;;;;;;;;;20.00;57.60;;;;;;6343023;28;19915;-72
2023/05/19 00:38:54;;;;;;;;;;;20.00;57.60;;;;;;6343742;28;19961;-72
2023/05/19 00:41:55;;;;;;;;;;;20.00;57.60;;;;;;6343264;28;19969;-72
2023/05/19 00:44:55;;;;;;;;;;;20.00;57.60;;;;;;6342684;28;19911;-72
2023/05/19 00:47:56;;;;;;;;;;;20.00;57.60;;;;;;6343142;28;19931;-72
2023/05/19 00:51:02;;;;;;;;;;;20.00;57.60;;;;;;6342599;28;19912;-72
2023/05/19 00:54:03;;;;;;;;;;;20.00;57.60;;;;;;6344190;28;20290;-72
2023/05/19 00:57:04;;;;;;;;;;;20.00;57.60;;;;;;6345069;28;19919;-71
2023/05/19 01:00:06;;;;;;;;;;;20.00;57.60;;;;;;6343464;28;20285;-71
2023/05/19 01:03:09;;;;;;;;;;;20.00;57.60;;;;;;6344469;28;19908;-72
2023/05/19 01:06:10;;;;;;;;;;;20.00;57.60;;;;;;6344597;28;19911;-71
2023/05/19 01:09:11;;;;;;;;;;;20.00;57.60;;;;;;6344833;28;19908;-71
2023/05/19 01:12:12;;;;;;;;;;;20.00;57.60;;;;;;6344585;28;19931;-71
2023/05/19 01:15:12;;;;;;;;;;;20.00;57.60;;;;;;6344486;28;20443;-71
2023/05/19 01:18:15;;;;;;;;;;;20.00;57.60;;;;;;6344632;28;19907;-71
2023/05/19 01:21:16;;;;;;;;;;;20.00;57.60;;;;;;6344744;28;20410;-72
2023/05/19 01:24:34;;;;;;;;;;;20.00;57.60;;;;;;6344071;28;19908;-72
2023/05/19 01:27:35;;;;;;;;;;;20.00;57.60;;;;;;6344752;28;20323;-72
2023/05/19 01:30:39;;;;;;;;;;;20.00;57.60;;;;;;6343718;28;19916;-72
2023/05/19 01:33:42;;;;;;;;;;;20.00;57.60;;;;;;6343529;28;19923;-72
2023/05/19 01:36:44;;;;;;;;;;;20.00;57.60;;;;;;6343150;28;20456;-72
2023/05/19 01:39:45;;;;;;;;;;;20.00;57.60;;;;;;6343316;28;19912;-72
2023/05/19 01:42:46;;;;;;;;;;;20.00;57.60;;;;;;6343483;28;19951;-72
2023/05/19 01:45:47;;;;;;;;;;;20.00;57.60;;;;;;6343274;28;19915;-72
2023/05/19 01:48:47;;;;;;;;;;;20.00;57.60;;;;;;6347883;28;20362;-72
2023/05/19 01:51:48;;;;;;;;;;;20.00;57.60;;;;;;6347896;28;19958;-72
2023/05/19 01:54:48;;;;;;;;;;;20.00;57.60;;;;;;6329454;28;19927;-72
2023/05/19 01:58:04;;;;;;;;;;;20.00;57.60;;;;;;6348571;28;19916;-71
2023/05/19 02:01:22;;;;;;;;;;;20.00;57.60;;;;;;6348361;28;19923;-72
2023/05/19 02:04:30;;;;;;;;;;;20.00;57.60;;;;;;6347830;28;20002;-72
2023/05/19 02:07:41;;;;;;;;;;;20.00;57.60;;;;;;6348106;28;19908;-72
2023/05/19 02:10:44;;;;;;;;;;;20.00;57.70;;;;;;6348030;28;19907;-72
2023/05/19 02:13:46;;;;;;;;;;;20.00;57.60;;;;;;6347329;28;19920;-72
2023/05/19 02:16:47;;;;;;;;;;;20.00;57.60;;;;;;6347168;28;20403;-72
2023/05/19 02:19:48;;;;;;;;;;;20.00;57.60;;;;;;6346824;28;19915;-72
2023/05/19 02:22:48;;;;;;;;;;;20.00;57.60;;;;;;6347354;28;19912;-72
2023/05/19 02:25:49;;;;;;;;;;;20.00;57.60;;;;;;6346852;28;19918;-72
2023/05/19 02:28:49;;;;;;;;;;;20.00;57.60;;;;;;6347718;28;19951;-72
2023/05/19 02:31:50;;;;;;;;;;;20.00;57.60;;;;;;6347157;28;20380;-72
2023/05/19 02:34:52;;;;;;;;;;;20.00;57.60;;;;;;6347188;28;19923;-72
2023/05/19 02:37:52;;;;;;;;;;;20.00;57.60;;;;;;6347169;28;19930;-72
2023/05/19 02:40:53;;;;;;;;;;;20.00;57.60;;;;;;6347627;28;19912;-73
2023/05/19 02:43:53;;;;;;;;;;;20.00;57.60;;;;;;6347583;28;19908;-72
2023/05/19 02:46:54;;;;;;;;;;;20.00;57.60;;;;;;6347453;28;19911;-72
2023/05/19 02:49:54;;;;;;;;;;;20.00;57.60;;;;;;6347555;28;19915;-72
2023/05/19 02:52:55;;;;;;;;;;;20.00;57.60;;;;;;6347567;28;19958;-72
2023/05/19 02:55:55;;;;;;;;;;;20.00;57.60;;;;;;6347268;28;19958;-72
2023/05/19 02:58:57;;;;;;;;;;;20.00;58.20;;;;;;6346413;28;19933;-73
2023/05/19 03:02:01;;;;;;;;;;;20.00;57.60;;;;;;6347078;28;19943;-72
2023/05/19 03:05:02;;;;;;;;;;;20.00;57.60;;;;;;6347041;28;19908;-72
2023/05/19 03:08:03;;;;;;;;;;;20.00;57.60;;;;;;6346765;28;19915;-72
2023/05/19 03:11:03;;;;;;;;;;;20.00;57.60;;;;;;6346067;28;20465;-72
2023/05/19 03:14:04;;;;;;;;;;;20.00;57.60;;;;;;6346846;28;19915;-72
2023/05/19 03:17:06;;;;;;;;;;;20.00;57.60;;;;;;6346582;28;20003;-72
2023/05/19 03:20:07;;;;;;;;;;;20.00;58.20;;;;;;6346850;28;20569;-72
2023/05/19 03:23:07;;;;;;;;;;;20.00;57.60;;;;;;6346902;28;19907;-72
2023/05/19 03:26:08;;;;;;;;;;;20.00;57.70;;;;;;6347027;28;19908;-72
2023/05/19 03:29:08;;;;;;;;;;;20.00;57.60;;;;;;6345851;28;19988;-72
2023/05/19 03:32:09;;;;;;;;;;;20.00;57.60;;;;;;6345835;28;19911;-72
2023/05/19 03:35:10;;;;;;;;;;;20.00;57.60;;;;;;6344866;28;19920;-72
2023/05/19 03:38:10;;;;;;;;;;;20.00;57.60;;;;;;6346302;28;19908;-71
2023/05/19 03:41:10;;;;;;;;;;;20.00;57.60;;;;;;6346427;28;19946;-69
2023/05/19 03:44:11;;;;;;;;;;;20.00;57.60;;;;;;6346443;28;20277;-71
2023/05/19 03:47:11;;;;;;;;;;;20.00;57.60;;;;;;6345207;28;19972;-71
2023/05/19 03:50:12;;;;;;;;;;;20.00;57.60;;;;;;6345215;28;19964;-72
2023/05/19 03:53:13;;;;;;;;;;;20.00;57.60;;;;;;6344877;28;19989;-72
2023/05/19 03:56:15;;;;;;;;;;;20.00;57.60;;;;;;6345129;28;19919;-72
2023/05/19 04:02:54;;;;;;;;;;;20.00;57.60;;;;;;6344910;28;19908;-72
2023/05/19 04:05:54;;;;;;;;;;;20.00;57.60;;;;;;6345951;28;19915;-72
2023/05/19 04:08:55;;;;;;;;;;;20.00;57.60;;;;;;6345507;28;20362;-71
2023/05/19 04:11:55;;;;;;;;;;;20.00;57.60;;;;;;6344639;28;19908;-72
2023/05/19 04:14:56;;;;;;;;;;;20.00;57.60;;;;;;6345086;28;20003;-72
2023/05/19 04:17:56;;;;;;;;;;;20.00;57.60;;;;;;6344286;28;19919;-72
2023/05/19 04:20:57;;;;;;;;;;;20.00;57.60;;;;;;6344715;28;19908;-70
2023/05/19 04:24:00;;;;;;;;;;;20.00;57.60;;;;;;6330576;28;20324;-69
2023/05/19 04:27:02;;;;;;;;;;;20.00;57.60;;;;;;6341217;28;20049;-71
2023/05/19 04:30:03;;;;;;;;;;;20.00;57.60;;;;;;6344522;28;19918;-72
2023/05/19 04:33:04;;;;;;;;;;;20.00;57.60;;;;;;6344915;28;19969;-72
2023/05/19 04:36:09;;;;;;;;;;;20.00;57.60;;;;;;6344475;28;19915;-72
2023/05/19 04:39:11;;;;;;;;;;;20.00;57.60;;;;;;6333615;28;19918;-72
2023/05/19 04:42:12;;;;;;;;;;;20.00;57.50;;;;;;6340067;28;19915;-72
2023/05/19 04:45:12;;;;;;;;;;;20.00;57.60;;;;;;6342147;28;19908;-72
2023/05/19 04:48:13;;;;;;;;;;;20.00;57.50;;;;;;6342636;28;19915;-72
2023/05/19 04:51:14;;;;;;;;;;;20.00;57.60;;;;;;6337942;28;19908;-72
2023/05/19 04:54:15;;;;;;;;;;;19.90;57.50;;;;;;6343957;28;21423;-72
2023/05/19 04:57:16;;;;;;;;;;;20.00;57.60;;;;;;6343908;28;19908;-72
2023/05/19 05:00:17;;;;;;;;;;;20.00;57.60;;;;;;6342447;28;19908;-72
2023/05/19 05:03:21;;;;;;;;;;;20.00;57.60;;;;;;6320251;28;19935;-72
2023/05/19 05:06:22;;;;;;;;;;;20.00;57.60;;;;;;6328723;28;19961;-72
2023/05/19 05:09:22;;;;;;;;;;;20.00;57.60;;;;;;6343037;28;19915;-72
2023/05/19 05:12:23;;;;;;;;;;;20.00;57.50;;;;;;6343227;28;19919;-71
2023/05/19 05:15:23;;;;;;;;;;;20.00;57.50;;;;;;6343455;28;19919;-72
2023/05/19 05:18:25;;;;;;;;;;;20.00;57.60;;;;;;6343789;28;20002;-71
2023/05/19 05:21:26;;;;;;;;;;;20.00;57.60;;;;;;6349163;27;19908;-72
2023/05/19 05:24:27;;;;;;;;;;;20.00;57.60;;;;;;6367671;27;19908;-71
2023/05/19 05:27:28;;;;;;;;;;;20.00;57.50;;;;;;6349089;28;20002;-71
2023/05/19 05:30:28;;;;;;;;;;;20.00;57.60;;;;;;6335220;28;19995;-72
2023/05/19 05:33:29;;;;;;;;;;;20.00;57.50;;;;;;6341219;28;19908;-72
2023/05/19 05:36:30;;;;;;;;;;;20.00;57.50;;;;;;6345520;28;20014;-72
2023/05/19 05:39:30;;;;;;;;;;;20.00;57.50;;;;;;6348923;28;20370;-72
2023/05/19 05:42:31;;;;;;;;;;;20.00;57.60;;;;;;6348535;28;19915;-72
2023/05/19 05:45:31;;;;;;;;;;;20.00;57.50;;;;;;6348725;28;19915;-72
2023/05/19 05:48:32;;;;;;;;;;;20.00;58.20;;;;;;6347941;28;19926;-72
2023/05/19 05:51:33;;;;;;;;;;;20.00;57.50;;;;;;6347964;28;19929;-72
2023/05/19 05:54:34;;;;;;;;;;;20.00;57.50;;;;;;6347281;28;19974;-72
2023/05/19 05:57:35;;;;;;;;;;;20.00;57.60;;;;;;6346777;28;20385;-71
2023/05/19 06:00:36;;;;;;;;;;;20.00;57.50;;;;;;6338353;28;20006;-72
2023/05/19 06:03:37;;;;;;;;;;;20.00;57.60;;;;;;6340665;28;20014;-72
2023/05/19 06:06:38;;;;;;;;;;;20.00;57.50;;;;;;6344094;28;20358;-72
2023/05/19 06:09:38;;;;;;;;;;;20.00;57.60;;;;;;6350458;28;19969;-72
2023/05/19 06:12:39;;;;;;;;;;;20.00;57.60;;;;;;6349797;28;19911;-72
2023/05/19 06:15:40;;;;;;;;;;;20.00;57.50;;;;;;6350316;28;20657;-72
2023/05/19 06:18:40;;;;;;;;;;;20.00;57.50;;;;;;6349854;28;19954;-71
2023/05/19 06:21:41;;;;;;;;;;;20.00;57.60;;;;;;6349501;28;19915;-72
2023/05/19 06:24:42;;;;;;;;;;;20.00;57.60;;;;;;6370122;27;20277;-72
2023/05/19 06:27:42;;;;;;;;;;;20.00;57.50;;;;;;6349737;28;19908;-71
2023/05/19 06:30:43;;;;;;;;;;;20.00;57.60;;;;;;6349557;28;19907;-72
2023/05/19 06:33:43;;;;;;;;;;;20.00;57.60;;;;;;6348311;28;20358;-72
2023/05/19 06:36:44;;;;;;;;;;;20.00;57.60;;;;;;6349679;28;19971;-72
2023/05/19 06:39:44;;;;;;;;;;;20.00;57.60;;;;;;6338239;28;19908;-72
2023/05/19 06:42:45;;;;;;;;;;;20.00;57.60;;;;;;6349449;28;19907;-72
2023/05/19 06:45:45;;;;;;;;;;;20.00;57.60;;;;;;6349592;28;19907;-72
2023/05/19 06:48:46;;;;;;;;;;;20.00;57.60;;;;;;6348864;28;19976;-72
2023/05/19 06:51:47;;;;;;;;;;;20.00;57.50;;;;;;6348993;28;20003;-71
2023/05/19 06:54:48;;;;;;;;;;;20.00;57.60;;;;;;6348876;28;19927;-71
2023/05/19 06:57:49;;;;;;;;;;;20.00;57.50;;;;;;6348848;28;19951;-72
2023/05/19 07:00:49;;;;;;;;;;;20.00;57.60;;;;;;6349119;27;20006;-72
2023/05/19 07:03:50;;;;;;;;;;;20.00;57.50;;;;;;6340158;28;19919;-72
2023/05/19 07:06:51;;;;;;;;;;;20.00;57.60;;;;;;6336273;28;19908;-72
2023/05/19 07:09:51;;;;;;;;;;;20.00;57.50;;;;;;6348602;28;19912;-72
2023/05/19 07:12:52;;;;;;;;;;;20.00;57.60;;;;;;6348222;28;19908;-72
2023/05/19 07:15:54;;;;;;;;;;;20.00;57.60;;;;;;6348900;28;19920;-72
2023/05/19 07:18:55;;;;;;;;;;;20.00;57.60;;;;;;6334495;27;19908;-72
2023/05/19 07:21:56;;;;;;;;;;;20.00;57.60;;;;;;6327881;27;19915;-72
2023/05/19 07:24:56;;;;;;;;;;;20.00;57.60;;;;;;6359292;27;19946;-72
2023/05/19 07:27:56;;;;;;;;;;;20.00;57.60;;;;;;6354033;27;19911;-71
2023/05/19 07:30:57;;;;;;;;;;;20.00;57.60;;;;;;6348121;28;19915;-72
2023/05/19 07:33:57;;;;;;;;;;;20.00;57.60;;;;;;6344846;28;19911;-72
2023/05/19 07:36:58;;;;;;;;;;;20.00;57.50;;;;;;6347682;28;19912;-72
2023/05/19 07:39:59;;;;;;;;;;;20.00;57.30;;;;;;6347293;28;19951;-72
2023/05/19 07:43:00;;;;;;;;;;;20.00;57.30;;;;;;6343378;28;19915;-72
2023/05/19 07:46:00;;;;;;;;;;;20.00;57.40;;;;;;6324833;28;19907;-72
2023/05/19 07:49:01;;;;;;;;;;;20.00;57.20;;;;;;6347726;28;19907;-71
2023/05/19 07:52:01;;;;;;;;;;;20.00;57.20;;;;;;6347676;28;19907;-72
2023/05/19 07:55:02;;;;;;;;;;;20.00;57.30;;;;;;6310112;28;20332;-72
2023/05/19 07:58:02;;;;;;;;;;;20.00;56.90;;;;;;6306527;28;19908;-71
2023/05/19 08:01:03;;;;;;;;;;;19.90;56.90;;;;;;6321944;28;19915;-72
2023/05/19 08:04:04;;;;;;;;;;;20.00;57.20;;;;;;6327140;28;19999;-72
2023/05/19 08:07:04;;;;;;;;;;;20.00;57.30;;;;;;6322001;28;19954;-71
2023/05/19 08:10:05;;;;;;;;;;;19.90;57.20;;;;;;6321653;28;19908;-72
2023/05/19 08:13:06;;;;;;;;;;;20.00;57.20;;;;;;6321678;28;19908;-71
2023/05/19 08:16:06;;;;;;;;;;;20.00;57.20;;;;;;6321189;28;19969;-71
2023/05/19 08:19:07;;;;;;;;;;;20.00;57.20;;;;;;6321445;28;20381;-72
2023/05/19 08:22:08;;;;;;;;;;;19.90;57.10;;;;;;6321927;28;19908;-72
2023/05/19 08:25:09;;;;;;;;;;;20.00;57.20;;;;;;6320610;28;19953;-71
2023/05/19 08:28:09;;;;;;;;;;;19.90;57.10;;;;;;6320886;28;19908;-72
2023/05/19 08:31:10;;;;;;;;;;;20.00;57.20;;;;;;6321536;28;20370;-72
2023/05/19 08:34:10;;;;;;;;;;;20.00;57.20;;;;;;6320787;28;19969;-71
2023/05/19 08:37:11;;;;;;;;;;;20.00;57.20;;;;;;6319678;28;19955;-70
2023/05/19 08:40:16;;;;;;;;;;;20.00;57.10;;;;;;6320617;28;19908;-71
2023/05/19 08:43:16;;;;;;;;;;;20.00;56.90;;;;;;6319794;28;19908;-70
2023/05/19 08:46:17;;;;;;;;;;;20.00;57.10;;;;;;6320702;28;19912;-70
2023/05/19 08:49:21;;;;;;;;;;;20.00;57.20;;;;;;6315425;28;19915;-71
2023/05/19 08:52:41;;;;;;;;;;;20.10;57.30;;;;;;6322534;28;20329;-70
2023/05/19 08:55:57;;;;;;;;;;;20.00;57.30;;;;;;6314414;28;19950;-71
2023/05/19 08:58:59;;;;;;;;;;;20.10;57.40;;;;;;6345287;28;19947;-71
2023/05/19 09:02:00;;;;;;;;;;;20.10;57.30;;;;;;6345545;28;19907;-71
2023/05/19 09:05:01;;;;;;;;;;;20.10;56.80;;;;;;6363444;27;19918;-71
2023/05/19 09:08:02;;;;;;;;;;;20.20;56.90;;;;;;6345666;28;19908;-72
2023/05/19 09:11:02;;;;;;;;;;;20.20;57.00;;;;;;6345036;28;19908;-71
2023/05/19 09:14:03;;;;;;;;;;;20.20;56.50;;;;;;6345612;28;19978;-71
2023/05/19 09:17:04;;;;;;;;;;;20.20;56.50;;;;;;6333932;28;19912;-72
2023/05/19 09:20:11;;;;;;;;;;;20.20;56.40;;;;;;6345829;28;19914;-71
2023/05/19 09:23:13;;;;;;;;;;;20.30;57.00;;;;;;6352273;28;19907;-71
2023/05/19 09:26:14;;;;;;;;;;;20.30;56.90;;;;;;6345654;28;19908;-70
2023/05/19 09:29:15;;;;;;;;;;;20.30;56.80;;;;;;6345225;28;19908;-71
2023/05/19 09:32:25;;;;;;;;;;;20.30;56.70;;;;;;6345560;28;19915;-71
2023/05/19 09:35:25;;;;;;;;;;;20.30;56.70;;;;;;6345398;28;19942;-70
2023/05/19 09:38:26;;;;;;;;;;;20.30;56.70;;;;;;6344813;28;20010;-71
2023/05/19 09:41:27;;;;;;;;;;;20.30;56.60;;;;;;6345053;28;19908;-71
2023/05/19 09:44:29;;;;;;;;;;;20.30;56.50;;;;;;6345662;28;19964;-71
2023/05/19 09:47:37;;;;;;;;;;;20.30;56.50;;;;;;6345305;28;19943;-71
2023/05/19 09:50:37;;;;;;;;;;;20.30;56.50;;;;;;6345609;28;20310;-71
2023/05/19 09:53:38;;;;;;;;;;;20.40;56.00;;;;;;6344581;28;19924;-71
2023/05/19 09:56:38;;;;;;;;;;;20.30;57.00;;;;;;6345176;28;19907;-71
2023/05/19 09:59:39;;;;;;;;;;;20.30;56.10;;;;;;6345253;28;19911;-71
2023/05/19 10:02:41;;;;;;;;;;;20.40;57.00;;;;;;6345079;28;20285;-71
2023/05/19 10:05:42;;;;;;;;;;;20.40;56.70;;;;;;6341739;28;19908;-71
2023/05/19 10:08:43;;;;;;;;;;;20.40;56.80;;;;;;6341335;28;19919;-71
2023/05/19 10:11:44;;;;;;;;;;;20.40;56.60;;;;;;6349803;28;19968;-71
2023/05/19 10:14:46;;;;;;;;;;;20.40;56.70;;;;;;6349850;28;20018;-71
2023/05/19 10:17:47;;;;;;;;;;;20.40;56.00;;;;;;6349394;28;19915;-71
2023/05/19 10:20:48;;;;;;;;;;;20.40;56.50;;;;;;6337481;28;19907;-71
2023/05/19 10:23:49;;;;;;;;;;;20.40;56.00;;;;;;6354545;27;20006;-71
2023/05/19 10:26:59;;;;;;;;;;;20.40;56.20;;;;;;6331362;28;19911;-72
2023/05/19 10:30:03;;;;;;;;;;;20.40;56.00;;;;;;6342801;28;19919;-71
2023/05/19 10:33:06;;;;;;;;;;;20.50;56.00;;;;;;6349946;28;20011;-71
2023/05/19 10:36:26;;;;;;;;;;;20.50;56.00;;;;;;6349620;28;19919;-71
2023/05/19 10:39:28;;;;;;;;;;;20.50;56.20;;;;;;6337403;28;19919;-71
2023/05/19 10:42:52;;;;;;;;;;;20.50;56.50;;;;;;6340923;28;19972;-71
2023/05/19 10:45:54;;;;;;;;;;;20.50;56.50;;;;;;6348832;28;19908;-71
2023/05/19 10:48:55;;;;;;;;;;;20.50;56.80;;;;;;6348809;28;20380;-70
2023/05/19 10:51:56;;;;;;;;;;;20.50;57.40;;;;;;6349378;28;19997;-72
2023/05/19 10:54:57;;;;;;;;;;;20.50;56.70;;;;;;6348337;28;19924;-71
2023/05/19 10:57:57;;;;;;;;;;;20.50;56.90;;;;;;6348324;28;19915;-71
2023/05/19 11:01:00;;;;;;;;;;;20.40;57.50;;;;;;6349251;28;19908;-72
2023/05/19 11:04:05;;;;;;;;;;;20.30;57.70;;;;;;6357445;27;20348;-71
2023/05/19 11:07:08;;;;;;;;;;;20.40;57.60;;;;;;6350268;27;19961;-73
2023/05/19 11:10:08;;;;;;;;;;;20.40;57.50;;;;;;6348205;28;19998;-72
2023/05/19 11:13:17;;;;;;;;;;;20.40;57.60;;;;;;6347744;28;19908;-72
2023/05/19 11:16:20;;;;;;;;;;;20.40;57.60;;;;;;6347937;28;19916;-71
2023/05/19 11:19:35;;;;;;;;;;;20.50;57.40;;;;;;6347049;28;19947;-71
2023/05/19 11:22:37;;;;;;;;;;;20.50;57.30;;;;;;6305146;28;19915;-72
2023/05/19 11:25:41;;;;;;;;;;;20.50;57.40;;;;;;6346166;28;19953;-72
2023/05/19 11:28:42;;;;;;;;;;;20.50;57.30;;;;;;6329762;28;19915;-72
2023/05/19 11:31:43;;;;;;;;;;;20.50;57.40;;;;;;6347935;28;20398;-72
2023/05/19 11:34:44;;;;;;;;;;;20.40;57.40;;;;;;6347316;28;19919;-72
2023/05/19 11:37:45;;;;;;;;;;;20.50;57.40;;;;;;6347798;28;20358;-71
2023/05/19 11:40:48;;;;;;;;;;;20.40;57.40;;;;;;6347198;28;19955;-72
2023/05/19 11:43:48;;;;;;;;;;;20.40;57.40;;;;;;6344099;28;19908;-72
2023/05/19 11:46:49;;;;;;;;;;;20.40;57.50;;;;;;6347614;28;19953;-72
2023/05/19 11:49:53;;;;;;;;;;;20.40;57.50;;;;;;6346659;28;19923;-72
2023/05/19 11:52:54;;;;;;;;;;;20.40;57.50;;;;;;6347555;28;19920;-71
2023/05/19 11:55:54;;;;;;;;;;;20.40;57.50;;;;;;6346500;28;20661;-72
2023/05/19 11:58:55;;;;;;;;;;;20.40;57.50;;;;;;6346895;28;19933;-72
2023/05/19 12:01:55;;;;;;;;;;;20.30;57.50;;;;;;6346885;28;20002;-72
2023/05/19 12:04:56;;;;;;;;;;;20.30;57.50;;;;;;6351554;27;19908;-72
2023/05/19 12:07:56;;;;;;;;;;;20.40;57.60;;;;;;6347169;28;19953;-71
2023/05/19 12:10:57;;;;;;;;;;;20.40;57.60;;;;;;6346976;28;20350;-71
2023/05/19 12:13:58;;;;;;;;;;;20.30;57.50;;;;;;6343694;28;19916;-71
2023/05/19 12:16:58;;;;;;;;;;;20.30;57.50;;;;;;6340206;28;19953;-72
2023/05/19 12:20:00;;;;;;;;;;;20.30;57.50;;;;;;6345624;28;19979;-71
2023/05/19 12:23:01;;;;;;;;;;;20.30;57.50;;;;;;6346120;28;20097;-72
2023/05/19 12:26:01;;;;;;;;;;;20.30;57.50;;;;;;6344856;28;20278;-72
2023/05/19 12:29:04;;;;;;;;;;;20.30;57.50;;;;;;6345601;28;19908;-72
2023/05/19 12:32:08;;;;;;;;;;;20.30;57.50;;;;;;6344377;28;20378;-72
2023/05/19 12:35:09;;;;;;;;;;;20.30;57.50;;;;;;6344407;28;19916;-72
2023/05/19 12:38:09;;;;;;;;;;;20.30;57.50;;;;;;6345381;28;19907;-72
2023/05/19 12:41:11;;;;;;;;;;;20.30;57.50;;;;;;6341192;28;19916;-72
2023/05/19 12:44:13;;;;;;;;;;;20.30;57.50;;;;;;6343932;28;19923;-72
2023/05/19 12:47:14;;;;;;;;;;;20.30;57.50;;;;;;6342084;28;19970;-72
2023/05/19 12:50:15;;;;;;;;;;;20.30;57.50;;;;;;6344691;28;20392;-72
2023/05/19 12:53:15;;;;;;;;;;;20.30;57.40;;;;;;6345254;28;19923;-72
2023/05/19 12:56:16;;;;;;;;;;;20.30;57.40;;;;;;6344103;28;20366;-72
2023/05/19 12:59:23;;;;;;;;;;;20.30;57.40;;;;;;6345321;28;19908;-72
2023/05/19 13:02:23;;;;;;;;;;;20.30;57.40;;;;;;6344750;28;20006;-72
2023/05/19 13:05:24;;;;;;;;;;;20.30;57.50;;;;;;6344005;28;19919;-73
2023/05/19 13:08:26;;;;;;;;;;;20.30;57.50;;;;;;6345687;28;19999;-72
2023/05/19 13:11:27;;;;;;;;;;;20.30;57.50;;;;;;6344141;28;19908;-71
2023/05/19 13:14:28;;;;;;;;;;;20.30;57.50;;;;;;6344664;28;20388;-72
2023/05/19 13:17:28;;;;;;;;;;;20.30;57.50;;;;;;6344721;28;19914;-72
2023/05/19 13:20:29;;;;;;;;;;;20.20;57.40;;;;;;6335297;28;20361;-72
2023/05/19 13:23:30;;;;;;;;;;;20.30;57.60;;;;;;6344645;28;20293;-72
2023/05/19 13:26:30;;;;;;;;;;;20.20;57.50;;;;;;6344768;28;19912;-71
2023/05/19 13:29:30;;;;;;;;;;;20.30;57.40;;;;;;6333585;28;19915;-72
2023/05/19 13:32:31;;;;;;;;;;;20.20;57.30;;;;;;6340680;28;20120;-72
2023/05/19 13:35:38;;;;;;;;;;;20.30;57.30;;;;;;6343905;28;19919;-72
2023/05/19 13:38:40;;;;;;;;;;;20.20;57.30;;;;;;6345104;28;19934;-72
2023/05/19 13:41:41;;;;;;;;;;;20.30;57.30;;;;;;6343970;28;19915;-72
2023/05/19 13:44:41;;;;;;;;;;;20.20;57.30;;;;;;6349373;28;19955;-72
2023/05/19 13:47:42;;;;;;;;;;;20.20;57.40;;;;;;6349603;28;20280;-73
2023/05/19 13:50:42;;;;;;;;;;;20.20;57.30;;;;;;6349790;28;19908;-71
2023/05/19 13:53:43;;;;;;;;;;;20.20;57.20;;;;;;6349279;28;20290;-72
2023/05/19 13:56:45;;;;;;;;;;;20.20;57.30;;;;;;6349561;28;19915;-72
2023/05/19 13:59:46;;;;;;;;;;;20.20;57.20;;;;;;6349598;28;19915;-72
2023/05/19 14:02:46;;;;;;;;;;;20.20;57.20;;;;;;6349391;28;20298;-72
2023/05/19 14:05:47;;;;;;;;;;;20.20;57.20;;;;;;6348210;28;19907;-73
2023/05/19 14:08:47;;;;;;;;;;;20.20;57.20;;;;;;6349137;28;19908;-71
2023/05/19 14:11:48;;;;;;;;;;;20.20;57.20;;;;;;6349173;28;19994;-72
2023/05/19 14:14:49;;;;;;;;;;;20.20;57.20;;;;;;6348733;28;19916;-72
2023/05/19 14:17:49;;;;;;;;;;;20.20;57.20;;;;;;6348860;28;19911;-72
2023/05/19 14:20:50;;;;;;;;;;;20.20;57.20;;;;;;6349872;28;20429;-73
2023/05/19 14:23:50;;;;;;;;;;;20.20;57.20;;;;;;6358648;27;19908;-72
2023/05/19 14:26:52;;;;;;;;;;;20.20;57.20;;;;;;6371662;27;19915;-72
2023/05/19 14:29:52;;;;;;;;;;;20.20;57.20;;;;;;6349396;28;20373;-72
2023/05/19 14:32:53;;;;;;;;;;;20.20;57.20;;;;;;6348920;28;19908;-72
2023/05/19 14:35:54;;;;;;;;;;;20.20;57.20;;;;;;6348605;28;19922;-72
2023/05/19 14:38:55;;;;;;;;;;;20.20;57.50;;;;;;6348627;28;20002;-71
2023/05/19 14:41:58;;;;;;;;;;;20.30;57.20;;;;;;6331869;28;19920;-71
2023/05/19 14:44:58;;;;;;;;;;;20.30;57.20;;;;;;6337499;28;19908;-72
2023/05/19 14:47:59;;;;;;;;;;;20.20;57.20;;;;;;6331312;28;19914;-72
2023/05/19 14:51:00;;;;;;;;;;;20.20;57.40;;;;;;6348628;28;19919;-72
2023/05/19 14:54:01;;;;;;;;;;;20.20;57.30;;;;;;6346509;28;20179;-72
2023/05/19 14:57:01;;;;;;;;;;;20.20;57.20;;;;;;6348140;28;19915;-72
2023/05/19 15:00:02;;;;;;;;;;;20.20;57.20;;;;;;6348764;28;19908;-72
2023/05/19 15:03:03;;;;;;;;;;;20.20;57.20;;;;;;6347526;28;20042;-72
2023/05/19 15:06:07;;;;;;;;;;;20.20;57.30;;;;;;6343698;28;19991;-72
2023/05/19 15:09:08;;;;;;;;;;;20.20;57.30;;;;;;6331528;28;19973;-72
2023/05/19 15:12:08;;;;;;;;;;;20.20;57.30;;;;;;6346982;28;19908;-71
2023/05/19 15:15:09;;;;;;;;;;;20.20;57.30;;;;;;6337432;28;20353;-72
2023/05/19 15:18:10;;;;;;;;;;;20.20;57.30;;;;;;6347203;28;19907;-72
2023/05/19 15:21:10;;;;;;;;;;;20.20;57.30;;;;;;6348076;28;19935;-72
2023/05/19 15:24:11;;;;;;;;;;;20.20;57.50;;;;;;6346841;27;19950;-72
2023/05/19 15:27:11;;;;;;;;;;;20.20;57.50;;;;;;6352599;27;19912;-73
2023/05/19 15:30:12;;;;;;;;;;;20.30;57.20;;;;;;6347604;28;19924;-72
2023/05/19 15:33:12;;;;;;;;;;;20.30;57.10;;;;;;6346672;28;19914;-73
2023/05/19 15:36:15;;;;;;;;;;;20.30;57.10;;;;;;6347043;28;20022;-72
2023/05/19 15:39:15;;;;;;;;;;;20.20;57.00;;;;;;6346720;28;20196;-73
2023/05/19 15:42:16;;;;;;;;;;;20.20;57.10;;;;;;6346148;28;19919;-73
2023/05/19 15:45:16;;;;;;;;;;;20.20;57.20;;;;;;6336207;28;20353;-72
2023/05/19 15:48:27;;;;;;;;;;;20.20;57.30;;;;;;4799129;28;10001536;-73
2023/05/19 15:51:28;;;;;;;;;;;20.20;57.30;;;;;;5378698;28;10000720;-72
2023/05/19 15:54:28;;;;;;;;;;;20.20;57.30;;;;;;6268854;28;19940;-73
2023/05/19 15:57:29;;;;;;;;;;;20.20;57.30;;;;;;6270434;28;19913;-72
2023/05/19 16:00:29;;;;;;;;;;;20.20;57.40;;;;;;6246631;28;20007;-72
2023/05/19 16:03:30;;;;;;;;;;;20.20;57.40;;;;;;6267387;28;19927;-72
2023/05/19 16:06:30;;;;;;;;;;;20.20;57.40;;;;;;6262004;28;19935;-72
2023/05/19 16:09:31;;;;;;;;;;;20.20;57.40;;;;;;6267271;28;19909;-73
2023/05/19 16:12:32;;;;;;;;;;;20.20;57.40;;;;;;6268367;28;20678;-72
2023/05/19 16:15:32;;;;;;;;;;;20.20;57.50;;;;;;6269208;28;20371;-72
2023/05/19 16:18:33;;;;;;;;;;;20.20;57.40;;;;;;6268534;28;19916;-72
2023/05/19 16:21:33;;;;;;;;;;;20.20;57.40;;;;;;6269324;28;20329;-72
2023/05/19 16:24:34;;;;;;;;;;;20.20;57.50;;;;;;6267028;28;19974;-72
2023/05/19 16:27:34;;;;;;;;;;;20.20;57.50;;;;;;6265473;28;19909;-72
2023/05/19 16:30:35;;;;;;;;;;;20.20;57.50;;;;;;6268579;28;20367;-72
2023/05/19 16:33:36;;;;;;;;;;;20.20;57.50;;;;;;6268583;28;19909;-72
2023/05/19 16:36:36;;;;;;;;;;;20.20;57.50;;;;;;6268240;28;19966;-72
2023/05/19 16:39:37;;;;;;;;;;;20.10;57.40;;;;;;6267581;28;19912;-72
2023/05/19 16:42:37;;;;;;;;;;;20.20;57.50;;;;;;6267044;28;20242;-72
2023/05/19 16:45:37;;;;;;;;;;;20.20;57.50;;;;;;6266606;28;20260;-72
2023/05/19 16:48:38;;;;;;;;;;;20.10;57.40;;;;;;6267354;28;20003;-72
2023/05/19 16:51:38;;;;;;;;;;;20.20;57.50;;;;;;6259280;28;20279;-73
2023/05/19 16:54:39;;;;;;;;;;;20.20;57.50;;;;;;6265735;28;20300;-72
2023/05/19 16:57:40;;;;;;;;;;;20.20;57.50;;;;;;6267035;28;19928;-72
2023/05/19 17:00:41;;;;;;;;;;;20.20;57.50;;;;;;6265914;28;19913;-72
2023/05/19 17:03:41;;;;;;;;;;;20.10;57.50;;;;;;6262134;28;19913;-72
2023/05/19 17:06:42;;;;;;;;;;;20.10;57.50;;;;;;6266973;28;19982;-72
2023/05/19 17:09:43;;;;;;;;;;;20.10;58.20;;;;;;6265340;28;19919;-71
2023/05/19 17:12:43;;;;;;;;;;;20.10;57.50;;;;;;6263072;28;19916;-72
2023/05/19 17:15:43;;;;;;;;;;;20.10;57.50;;;;;;6264711;28;19927;-73
2023/05/19 17:18:46;;;;;;;;;;;20.10;57.50;;;;;;6263596;28;19912;-72
2023/05/19 17:21:47;;;;;;;;;;;20.10;57.60;;;;;;6266980;28;19916;-71
2023/05/19 17:24:47;;;;;;;;;;;20.10;57.50;;;;;;6266936;28;20363;-72
2023/05/19 17:27:48;;;;;;;;;;;20.10;57.60;;;;;;6268579;28;19909;-72
2023/05/19 17:30:48;;;;;;;;;;;20.10;57.50;;;;;;6268011;28;20380;-72
2023/05/19 17:33:49;;;;;;;;;;;20.10;57.50;;;;;;6267075;28;20406;-72
2023/05/19 17:36:49;;;;;;;;;;;20.10;57.60;;;;;;6265413;28;19913;-72
2023/05/19 17:39:50;;;;;;;;;;;20.10;57.50;;;;;;6267886;28;19920;-71